San Diego/Miramar MCAS, California
Current Conditions -  °F | °C
As of 1:03 AM on Saturday 25 Oct 2014 (Local Time) from KNKX Reporting Station
Haze Haze  
Wind Chill: 65°   Ceiling: Unl
Heat Index: 65°   Visibility: 1.7mi
Dew Point: 53°   Wind: 7mph
Humidity: 65%   Direction: 340°NNW
Pressure: 30.02"   Gusts: NA
Location:  32.85°N, 117.12°W
Report Text: KNKX 250803Z 34006KT 1 3/4SM HZ FEW095 18/12 A3002 RMK AO2 T01830117
Loading
Personal Weather Stations






























Interactive Weather Map
Tropical Storm Tracking
New forecast layout! Learn more

10-Day Weather Forecast

Advertisements
Track Severe Weather on mobile